sensor_id;sensor_type;location;lat;lon;timestamp;temperature;humidity
25640;DHT22;13497;48.322;16.204;2023-02-28T00:00:38;1.30;99.00
25640;DHT22;13497;48.322;16.204;2023-02-28T00:03:04;1.30;99.00
25640;DHT22;13497;48.322;16.204;2023-02-28T00:05:30;1.30;99.10
25640;DHT22;13497;48.322;16.204;2023-02-28T00:07:56;1.30;99.30
25640;DHT22;13497;48.322;16.204;2023-02-28T00:10:22;1.30;99.20
25640;DHT22;13497;48.322;16.204;2023-02-28T00:12:51;1.30;99.20
25640;DHT22;13497;48.322;16.204;2023-02-28T00:15:17;1.20;99.40
25640;DHT22;13497;48.322;16.204;2023-02-28T00:17:43;1.20;99.50
25640;DHT22;13497;48.322;16.204;2023-02-28T00:20:09;1.20;99.60
25640;DHT22;13497;48.322;16.204;2023-02-28T00:22:40;1.10;99.70
25640;DHT22;13497;48.322;16.204;2023-02-28T00:25:07;1.10;99.80
25640;DHT22;13497;48.322;16.204;2023-02-28T00:27:33;1.10;99.90
25640;DHT22;13497;48.322;16.204;2023-02-28T00:29:59;1.10;99.90
25640;DHT22;13497;48.322;16.204;2023-02-28T00:32:25;1.10;99.90
25640;DHT22;13497;48.322;16.204;2023-02-28T00:34:50;1.00;99.90
25640;DHT22;13497;48.322;16.204;2023-02-28T00:37:16;1.00;99.90
25640;DHT22;13497;48.322;16.204;2023-02-28T00:39:41;0.90;99.90
25640;DHT22;13497;48.322;16.204;2023-02-28T00:42:07;0.90;99.90
25640;DHT22;13497;48.322;16.204;2023-02-28T00:44:33;0.90;99.90
25640;DHT22;13497;48.322;16.204;2023-02-28T00:46:59;0.90;99.90
25640;DHT22;13497;48.322;16.204;2023-02-28T00:49:26;0.90;99.90
25640;DHT22;13497;48.322;16.204;2023-02-28T00:51:52;0.90;99.90
25640;DHT22;13497;48.322;16.204;2023-02-28T00:54:17;1.00;99.90
25640;DHT22;13497;48.322;16.204;2023-02-28T00:56:43;1.00;99.90
25640;DHT22;13497;48.322;16.204;2023-02-28T00:59:08;1.10;99.90
25640;DHT22;13497;48.322;16.204;2023-02-28T01:01:34;1.00;99.90
25640;DHT22;13497;48.322;16.204;2023-02-28T01:03:59;1.10;99.90
25640;DHT22;13497;48.322;16.204;2023-02-28T01:06:25;1.00;99.90
25640;DHT22;13497;48.322;16.204;2023-02-28T01:08:51;0.90;99.90
25640;DHT22;13497;48.322;16.204;2023-02-28T01:11:16;0.90;99.90
25640;DHT22;13497;48.322;16.204;2023-02-28T01:13:43;1.00;99.90
25640;DHT22;13497;48.322;16.204;2023-02-28T01:16:09;0.90;99.90
25640;DHT22;13497;48.322;16.204;2023-02-28T01:18:35;0.90;99.90
25640;DHT22;13497;48.322;16.204;2023-02-28T01:21:08;0.90;99.90
25640;DHT22;13497;48.322;16.204;2023-02-28T01:23:34;0.90;99.90
25640;DHT22;13497;48.322;16.204;2023-02-28T01:26:06;0.90;99.90
25640;DHT22;13497;48.322;16.204;2023-02-28T01:28:32;0.90;99.90
25640;DHT22;13497;48.322;16.204;2023-02-28T01:30:58;0.90;99.90
25640;DHT22;13497;48.322;16.204;2023-02-28T01:33:23;0.80;99.90
25640;DHT22;13497;48.322;16.204;2023-02-28T01:35:49;0.80;99.90
25640;DHT22;13497;48.322;16.204;2023-02-28T01:38:14;0.70;99.90
25640;DHT22;13497;48.322;16.204;2023-02-28T01:40:40;0.70;99.90
25640;DHT22;13497;48.322;16.204;2023-02-28T01:43:12;0.70;99.90
25640;DHT22;13497;48.322;16.204;2023-02-28T01:45:42;0.60;99.90
25640;DHT22;13497;48.322;16.204;2023-02-28T01:48:07;0.60;99.90
25640;DHT22;13497;48.322;16.204;2023-02-28T01:50:35;0.60;99.90
25640;DHT22;13497;48.322;16.204;2023-02-28T01:53:03;0.60;99.90
25640;DHT22;13497;48.322;16.204;2023-02-28T01:55:29;0.50;99.90
25640;DHT22;13497;48.322;16.204;2023-02-28T01:57:56;0.60;99.90
25640;DHT22;13497;48.322;16.204;2023-02-28T02:00:23;0.60;99.90
25640;DHT22;13497;48.322;16.204;2023-02-28T02:02:50;0.60;99.90
25640;DHT22;13497;48.322;16.204;2023-02-28T02:05:18;0.70;99.90
25640;DHT22;13497;48.322;16.204;2023-02-28T02:07:44;0.80;99.90
25640;DHT22;13497;48.322;16.204;2023-02-28T02:15:19;0.90;99.90
25640;DHT22;13497;48.322;16.204;2023-02-28T02:17:49;0.80;99.90
25640;DHT22;13497;48.322;16.204;2023-02-28T02:33:57;1.10;99.90
25640;DHT22;13497;48.322;16.204;2023-02-28T02:36:42;1.10;99.90
25640;DHT22;13497;48.322;16.204;2023-02-28T02:39:14;1.10;99.90
25640;DHT22;13497;48.322;16.204;2023-02-28T02:41:51;1.10;99.90
25640;DHT22;13497;48.322;16.204;2023-02-28T02:44:19;1.10;99.90
25640;DHT22;13497;48.322;16.204;2023-02-28T02:46:45;1.10;99.90
25640;DHT22;13497;48.322;16.204;2023-02-28T02:49:16;1.20;99.90
25640;DHT22;13497;48.322;16.204;2023-02-28T02:51:42;1.30;99.90
25640;DHT22;13497;48.322;16.204;2023-02-28T02:54:13;1.30;99.90
25640;DHT22;13497;48.322;16.204;2023-02-28T02:56:41;1.30;99.90
25640;DHT22;13497;48.322;16.204;2023-02-28T02:59:09;1.30;99.90
25640;DHT22;13497;48.322;16.204;2023-02-28T03:01:36;1.20;99.90
25640;DHT22;13497;48.322;16.204;2023-02-28T03:04:11;1.30;99.90
25640;DHT22;13497;48.322;16.204;2023-02-28T03:06:37;1.20;99.90
25640;DHT22;13497;48.322;16.204;2023-02-28T03:09:03;1.10;99.90
25640;DHT22;13497;48.322;16.204;2023-02-28T03:11:29;1.00;99.90
25640;DHT22;13497;48.322;16.204;2023-02-28T03:16:44;0.90;99.90
25640;DHT22;13497;48.322;16.204;2023-02-28T03:19:23;0.80;99.90
25640;DHT22;13497;48.322;16.204;2023-02-28T03:22:13;0.70;99.90
25640;DHT22;13497;48.322;16.204;2023-02-28T03:24:43;0.80;99.90
25640;DHT22;13497;48.322;16.204;2023-02-28T03:27:31;0.70;99.90
25640;DHT22;13497;48.322;16.204;2023-02-28T03:30:01;0.70;99.90
25640;DHT22;13497;48.322;16.204;2023-02-28T03:32:29;0.60;99.90
25640;DHT22;13497;48.322;16.204;2023-02-28T03:35:05;0.50;99.90
25640;DHT22;13497;48.322;16.204;2023-02-28T03:37:33;0.50;99.90
25640;DHT22;13497;48.322;16.204;2023-02-28T03:40:06;0.40;99.90
25640;DHT22;13497;48.322;16.204;2023-02-28T03:42:34;0.30;99.90
25640;DHT22;13497;48.322;16.204;2023-02-28T03:45:02;0.20;99.90
25640;DHT22;13497;48.322;16.204;2023-02-28T03:47:43;0.20;99.90
25640;DHT22;13497;48.322;16.204;2023-02-28T03:50:12;0.20;99.90
25640;DHT22;13497;48.322;16.204;2023-02-28T03:53:02;0.10;99.90
25640;DHT22;13497;48.322;16.204;2023-02-28T03:55:28;0.10;99.90
25640;DHT22;13497;48.322;16.204;2023-02-28T04:00:35;0.20;99.90
25640;DHT22;13497;48.322;16.204;2023-02-28T04:03:03;0.30;99.90
25640;DHT22;13497;48.322;16.204;2023-02-28T04:05:28;0.30;99.90
25640;DHT22;13497;48.322;16.204;2023-02-28T04:07:59;0.30;99.90
25640;DHT22;13497;48.322;16.204;2023-02-28T04:10:28;0.20;99.90
25640;DHT22;13497;48.322;16.204;2023-02-28T04:12:53;0.20;99.90
25640;DHT22;13497;48.322;16.204;2023-02-28T04:15:19;0.30;99.90
25640;DHT22;13497;48.322;16.204;2023-02-28T04:17:48;0.30;99.90
25640;DHT22;13497;48.322;16.204;2023-02-28T04:20:13;0.40;99.90
25640;DHT22;13497;48.322;16.204;2023-02-28T04:22:38;0.40;99.90
25640;DHT22;13497;48.322;16.204;2023-02-28T04:25:04;0.30;99.90
25640;DHT22;13497;48.322;16.204;2023-02-28T04:27:30;0.10;99.90
25640;DHT22;13497;48.322;16.204;2023-02-28T04:29:56;0.00;99.90
25640;DHT22;13497;48.322;16.204;2023-02-28T04:32:21;0.00;99.90
25640;DHT22;13497;48.322;16.204;2023-02-28T04:34:47;-0.10;99.90
25640;DHT22;13497;48.322;16.204;2023-02-28T04:37:13;0.00;99.90
25640;DHT22;13497;48.322;16.204;2023-02-28T04:39:38;0.10;99.90
25640;DHT22;13497;48.322;16.204;2023-02-28T04:42:04;0.20;99.90
25640;DHT22;13497;48.322;16.204;2023-02-28T04:44:29;0.20;99.90
25640;DHT22;13497;48.322;16.204;2023-02-28T04:46:55;0.30;99.90
25640;DHT22;13497;48.322;16.204;2023-02-28T04:49:20;0.20;99.90
25640;DHT22;13497;48.322;16.204;2023-02-28T04:51:46;0.30;99.90
25640;DHT22;13497;48.322;16.204;2023-02-28T04:54:12;0.40;99.90
25640;DHT22;13497;48.322;16.204;2023-02-28T04:56:38;0.40;99.90
25640;DHT22;13497;48.322;16.204;2023-02-28T04:59:04;0.50;99.90
25640;DHT22;13497;48.322;16.204;2023-02-28T05:01:30;0.40;99.90
25640;DHT22;13497;48.322;16.204;2023-02-28T05:03:58;0.40;99.90
25640;DHT22;13497;48.322;16.204;2023-02-28T05:06:24;0.30;99.90
25640;DHT22;13497;48.322;16.204;2023-02-28T05:08:50;0.30;99.90
25640;DHT22;13497;48.322;16.204;2023-02-28T05:11:17;0.20;99.90
25640;DHT22;13497;48.322;16.204;2023-02-28T05:13:43;0.10;99.90
25640;DHT22;13497;48.322;16.204;2023-02-28T05:16:09;0.10;99.90
25640;DHT22;13497;48.322;16.204;2023-02-28T05:18:35;-0.10;99.90
25640;DHT22;13497;48.322;16.204;2023-02-28T05:21:00;-0.20;99.90
25640;DHT22;13497;48.322;16.204;2023-02-28T05:23:29;-0.30;99.90
25640;DHT22;13497;48.322;16.204;2023-02-28T05:25:54;-0.40;99.90
25640;DHT22;13497;48.322;16.204;2023-02-28T05:28:20;-0.40;99.90
25640;DHT22;13497;48.322;16.204;2023-02-28T05:30:46;-0.50;99.90
25640;DHT22;13497;48.322;16.204;2023-02-28T05:33:12;-0.50;99.90
25640;DHT22;13497;48.322;16.204;2023-02-28T05:35:41;-0.60;99.90
25640;DHT22;13497;48.322;16.204;2023-02-28T05:38:07;-0.60;99.90
25640;DHT22;13497;48.322;16.204;2023-02-28T05:40:32;-0.60;99.90
25640;DHT22;13497;48.322;16.204;2023-02-28T05:42:58;-0.60;99.90
25640;DHT22;13497;48.322;16.204;2023-02-28T05:45:23;-0.60;99.90
25640;DHT22;13497;48.322;16.204;2023-02-28T05:47:52;-0.60;99.90
25640;DHT22;13497;48.322;16.204;2023-02-28T05:50:18;-0.60;99.90
25640;DHT22;13497;48.322;16.204;2023-02-28T05:52:44;-0.60;99.90
25640;DHT22;13497;48.322;16.204;2023-02-28T05:55:09;-0.60;99.90
25640;DHT22;13497;48.322;16.204;2023-02-28T05:57:35;-0.60;99.90
25640;DHT22;13497;48.322;16.204;2023-02-28T06:00:00;-0.60;99.90
25640;DHT22;13497;48.322;16.204;2023-02-28T06:02:26;-0.60;99.90
25640;DHT22;13497;48.322;16.204;2023-02-28T06:04:51;-0.60;99.90
25640;DHT22;13497;48.322;16.204;2023-02-28T06:07:20;-0.70;99.90
25640;DHT22;13497;48.322;16.204;2023-02-28T06:09:48;-0.70;99.90
25640;DHT22;13497;48.322;16.204;2023-02-28T06:12:13;-0.70;99.90
25640;DHT22;13497;48.322;16.204;2023-02-28T06:14:39;-0.80;99.90
25640;DHT22;13497;48.322;16.204;2023-02-28T06:17:04;-0.80;99.90
25640;DHT22;13497;48.322;16.204;2023-02-28T06:19:30;-0.70;99.90
25640;DHT22;13497;48.322;16.204;2023-02-28T06:21:56;-0.70;99.90
25640;DHT22;13497;48.322;16.204;2023-02-28T06:24:22;-0.70;99.90
25640;DHT22;13497;48.322;16.204;2023-02-28T06:26:48;-0.60;99.90
25640;DHT22;13497;48.322;16.204;2023-02-28T06:29:14;-0.60;99.90
25640;DHT22;13497;48.322;16.204;2023-02-28T06:31:44;-0.60;99.90
25640;DHT22;13497;48.322;16.204;2023-02-28T06:34:09;-0.60;99.90
25640;DHT22;13497;48.322;16.204;2023-02-28T06:36:37;-0.60;99.90
25640;DHT22;13497;48.322;16.204;2023-02-28T06:39:03;-0.60;99.90
25640;DHT22;13497;48.322;16.204;2023-02-28T06:41:28;-0.60;99.90
25640;DHT22;13497;48.322;16.204;2023-02-28T06:43:54;-0.60;99.90
25640;DHT22;13497;48.322;16.204;2023-02-28T06:46:19;-0.60;99.90
25640;DHT22;13497;48.322;16.204;2023-02-28T06:48:45;-0.60;99.90
25640;DHT22;13497;48.322;16.204;2023-02-28T06:51:12;-0.50;99.90
25640;DHT22;13497;48.322;16.204;2023-02-28T06:53:39;-0.50;99.90
25640;DHT22;13497;48.322;16.204;2023-02-28T06:56:06;-0.40;99.90
25640;DHT22;13497;48.322;16.204;2023-02-28T06:58:32;-0.40;99.90
25640;DHT22;13497;48.322;16.204;2023-02-28T07:00:58;-0.40;99.90
25640;DHT22;13497;48.322;16.204;2023-02-28T07:03:24;-0.40;99.90
25640;DHT22;13497;48.322;16.204;2023-02-28T07:05:49;-0.40;99.90
25640;DHT22;13497;48.322;16.204;2023-02-28T07:08:16;-0.40;99.90
25640;DHT22;13497;48.322;16.204;2023-02-28T07:10:41;-0.20;99.90
25640;DHT22;13497;48.322;16.204;2023-02-28T07:13:07;-0.30;99.90
25640;DHT22;13497;48.322;16.204;2023-02-28T07:15:34;-0.10;99.90
25640;DHT22;13497;48.322;16.204;2023-02-28T07:17:59;-0.10;99.90
25640;DHT22;13497;48.322;16.204;2023-02-28T07:20:25;-0.10;99.90
25640;DHT22;13497;48.322;16.204;2023-02-28T07:22:51;-0.10;99.90
25640;DHT22;13497;48.322;16.204;2023-02-28T07:25:22;-0.10;99.90
25640;DHT22;13497;48.322;16.204;2023-02-28T07:27:48;-0.20;99.90
25640;DHT22;13497;48.322;16.204;2023-02-28T07:30:13;-0.10;99.90
25640;DHT22;13497;48.322;16.204;2023-02-28T07:32:39;0.00;99.90
25640;DHT22;13497;48.322;16.204;2023-02-28T07:35:04;0.00;99.90
25640;DHT22;13497;48.322;16.204;2023-02-28T07:37:30;0.10;99.90
25640;DHT22;13497;48.322;16.204;2023-02-28T07:40:05;0.20;99.90
25640;DHT22;13497;48.322;16.204;2023-02-28T07:42:34;0.20;99.90
25640;DHT22;13497;48.322;16.204;2023-02-28T07:45:00;0.30;99.90
25640;DHT22;13497;48.322;16.204;2023-02-28T07:47:26;0.50;99.90
25640;DHT22;13497;48.322;16.204;2023-02-28T07:49:51;0.60;99.90
25640;DHT22;13497;48.322;16.204;2023-02-28T07:52:17;0.70;99.90
25640;DHT22;13497;48.322;16.204;2023-02-28T07:54:42;0.80;99.90
25640;DHT22;13497;48.322;16.204;2023-02-28T07:57:08;0.80;99.90
25640;DHT22;13497;48.322;16.204;2023-02-28T07:59:33;0.90;99.90
25640;DHT22;13497;48.322;16.204;2023-02-28T08:01:59;1.00;99.90
25640;DHT22;13497;48.322;16.204;2023-02-28T08:04:25;1.00;99.90
25640;DHT22;13497;48.322;16.204;2023-02-28T08:06:50;1.00;99.90
25640;DHT22;13497;48.322;16.204;2023-02-28T08:09:19;1.00;99.90
25640;DHT22;13497;48.322;16.204;2023-02-28T08:11:44;1.00;99.90
25640;DHT22;13497;48.322;16.204;2023-02-28T08:14:10;1.10;99.90
25640;DHT22;13497;48.322;16.204;2023-02-28T08:16:36;1.20;99.90
25640;DHT22;13497;48.322;16.204;2023-02-28T08:19:01;1.30;99.90
25640;DHT22;13497;48.322;16.204;2023-02-28T08:21:27;1.30;99.90
25640;DHT22;13497;48.322;16.204;2023-02-28T08:23:52;1.30;99.90
25640;DHT22;13497;48.322;16.204;2023-02-28T08:26:18;1.50;99.90
25640;DHT22;13497;48.322;16.204;2023-02-28T08:28:44;1.50;99.90
25640;DHT22;13497;48.322;16.204;2023-02-28T08:31:10;1.40;99.90
25640;DHT22;13497;48.322;16.204;2023-02-28T08:33:37;1.30;99.90
25640;DHT22;13497;48.322;16.204;2023-02-28T08:36:04;1.30;99.90
25640;DHT22;13497;48.322;16.204;2023-02-28T08:38:30;1.30;99.90
25640;DHT22;13497;48.322;16.204;2023-02-28T08:40:59;1.50;99.90
25640;DHT22;13497;48.322;16.204;2023-02-28T08:43:24;1.50;99.90
25640;DHT22;13497;48.322;16.204;2023-02-28T08:45:53;1.60;99.90
25640;DHT22;13497;48.322;16.204;2023-02-28T08:48:19;1.80;99.90
25640;DHT22;13497;48.322;16.204;2023-02-28T08:50:54;2.20;99.90
25640;DHT22;13497;48.322;16.204;2023-02-28T08:53:19;2.30;99.90
25640;DHT22;13497;48.322;16.204;2023-02-28T08:55:45;2.40;99.90
25640;DHT22;13497;48.322;16.204;2023-02-28T08:58:11;2.50;99.90
25640;DHT22;13497;48.322;16.204;2023-02-28T09:00:36;2.60;99.90
25640;DHT22;13497;48.322;16.204;2023-02-28T09:03:02;2.60;99.90
25640;DHT22;13497;48.322;16.204;2023-02-28T09:05:28;2.60;99.90
25640;DHT22;13497;48.322;16.204;2023-02-28T09:07:55;2.70;99.90
25640;DHT22;13497;48.322;16.204;2023-02-28T09:10:20;2.80;99.90
25640;DHT22;13497;48.322;16.204;2023-02-28T09:12:46;3.00;99.90
25640;DHT22;13497;48.322;16.204;2023-02-28T09:15:12;3.10;99.90
25640;DHT22;13497;48.322;16.204;2023-02-28T09:17:38;3.20;99.90
25640;DHT22;13497;48.322;16.204;2023-02-28T09:20:04;3.30;99.90
25640;DHT22;13497;48.322;16.204;2023-02-28T09:22:30;3.00;99.90
25640;DHT22;13497;48.322;16.204;2023-02-28T09:24:55;3.10;99.90
25640;DHT22;13497;48.322;16.204;2023-02-28T09:27:21;3.20;99.90
25640;DHT22;13497;48.322;16.204;2023-02-28T09:29:46;3.20;99.90
25640;DHT22;13497;48.322;16.204;2023-02-28T09:32:12;3.20;99.90
25640;DHT22;13497;48.322;16.204;2023-02-28T09:34:38;3.30;99.90
25640;DHT22;13497;48.322;16.204;2023-02-28T09:37:03;3.10;99.90
25640;DHT22;13497;48.322;16.204;2023-02-28T09:39:29;3.00;99.90
25640;DHT22;13497;48.322;16.204;2023-02-28T09:41:54;2.90;99.90
25640;DHT22;13497;48.322;16.204;2023-02-28T09:44:53;2.90;99.90
25640;DHT22;13497;48.322;16.204;2023-02-28T09:47:32;2.90;99.90
25640;DHT22;13497;48.322;16.204;2023-02-28T09:49:59;2.90;99.90
25640;DHT22;13497;48.322;16.204;2023-02-28T09:52:29;3.20;99.90
25640;DHT22;13497;48.322;16.204;2023-02-28T09:54:55;3.30;99.90
25640;DHT22;13497;48.322;16.204;2023-02-28T10:05:17;4.20;99.90
25640;DHT22;13497;48.322;16.204;2023-02-28T10:07:50;4.20;99.90
25640;DHT22;13497;48.322;16.204;2023-02-28T10:10:25;4.40;99.90
25640;DHT22;13497;48.322;16.204;2023-02-28T10:12:52;4.30;99.90
25640;DHT22;13497;48.322;16.204;2023-02-28T10:15:19;4.30;99.90
25640;DHT22;13497;48.322;16.204;2023-02-28T10:17:47;4.30;99.90
25640;DHT22;13497;48.322;16.204;2023-02-28T10:20:15;4.30;99.90
25640;DHT22;13497;48.322;16.204;2023-02-28T10:23:45;4.40;99.90
25640;DHT22;13497;48.322;16.204;2023-02-28T10:25:39;4.50;99.70
25640;DHT22;13497;48.322;16.204;2023-02-28T10:28:14;4.40;99.60
25640;DHT22;13497;48.322;16.204;2023-02-28T10:30:41;4.50;99.90
25640;DHT22;13497;48.322;16.204;2023-02-28T10:33:11;5.10;99.60
25640;DHT22;13497;48.322;16.204;2023-02-28T10:35:42;5.40;99.20
25640;DHT22;13497;48.322;16.204;2023-02-28T10:38:10;5.30;98.60
25640;DHT22;13497;48.322;16.204;2023-02-28T10:40:39;5.40;98.80
25640;DHT22;13497;48.322;16.204;2023-02-28T10:43:11;5.40;98.60
25640;DHT22;13497;48.322;16.204;2023-02-28T10:48:34;5.10;98.50
25640;DHT22;13497;48.322;16.204;2023-02-28T10:51:00;5.00;99.10
25640;DHT22;13497;48.322;16.204;2023-02-28T10:54:10;5.10;98.90
25640;DHT22;13497;48.322;16.204;2023-02-28T10:56:16;5.20;99.00
25640;DHT22;13497;48.322;16.204;2023-02-28T10:58:46;5.40;98.70
25640;DHT22;13497;48.322;16.204;2023-02-28T11:01:13;5.40;98.40
25640;DHT22;13497;48.322;16.204;2023-02-28T11:03:39;5.50;98.00
25640;DHT22;13497;48.322;16.204;2023-02-28T11:06:12;5.20;97.70
25640;DHT22;13497;48.322;16.204;2023-02-28T11:08:46;5.10;98.00
25640;DHT22;13497;48.322;16.204;2023-02-28T11:11:11;5.20;98.00
25640;DHT22;13497;48.322;16.204;2023-02-28T11:13:37;5.20;97.80
25640;DHT22;13497;48.322;16.204;2023-02-28T11:16:07;5.00;97.90
25640;DHT22;13497;48.322;16.204;2023-02-28T11:18:53;5.20;97.80
25640;DHT22;13497;48.322;16.204;2023-02-28T11:21:37;5.00;97.80
25640;DHT22;13497;48.322;16.204;2023-02-28T11:24:12;4.90;98.00
25640;DHT22;13497;48.322;16.204;2023-02-28T11:26:45;4.70;97.90
25640;DHT22;13497;48.322;16.204;2023-02-28T11:31:37;4.60;98.60
25640;DHT22;13497;48.322;16.204;2023-02-28T11:34:07;4.50;98.40
25640;DHT22;13497;48.322;16.204;2023-02-28T11:36:46;4.30;98.80
25640;DHT22;13497;48.322;16.204;2023-02-28T11:39:11;4.30;98.90
25640;DHT22;13497;48.322;16.204;2023-02-28T11:41:57;4.30;98.90
25640;DHT22;13497;48.322;16.204;2023-02-28T11:46:59;4.40;98.50
25640;DHT22;13497;48.322;16.204;2023-02-28T11:54:55;4.50;98.70
25640;DHT22;13497;48.322;16.204;2023-02-28T12:03:06;4.60;98.20
25640;DHT22;13497;48.322;16.204;2023-02-28T12:08:07;4.90;98.00
25640;DHT22;13497;48.322;16.204;2023-02-28T12:10:42;4.80;97.60
25640;DHT22;13497;48.322;16.204;2023-02-28T12:20:58;4.90;98.00
25640;DHT22;13497;48.322;16.204;2023-02-28T12:25:55;4.80;97.80
25640;DHT22;13497;48.322;16.204;2023-02-28T12:28:27;4.90;97.80
25640;DHT22;13497;48.322;16.204;2023-02-28T12:30:58;4.80;97.60
25640;DHT22;13497;48.322;16.204;2023-02-28T12:33:26;4.60;97.80
25640;DHT22;13497;48.322;16.204;2023-02-28T12:35:56;4.50;97.70
25640;DHT22;13497;48.322;16.204;2023-02-28T12:38:23;4.70;97.70
25640;DHT22;13497;48.322;16.204;2023-02-28T12:41:36;4.90;97.30
25640;DHT22;13497;48.322;16.204;2023-02-28T12:43:44;5.20;97.10
25640;DHT22;13497;48.322;16.204;2023-02-28T12:46:12;5.40;96.70
25640;DHT22;13497;48.322;16.204;2023-02-28T12:48:46;5.60;96.30
25640;DHT22;13497;48.322;16.204;2023-02-28T12:51:13;5.50;96.00
25640;DHT22;13497;48.322;16.204;2023-02-28T12:56:16;5.30;96.00
25640;DHT22;13497;48.322;16.204;2023-02-28T12:58:48;5.30;96.20
25640;DHT22;13497;48.322;16.204;2023-02-28T13:09:16;5.40;96.00
25640;DHT22;13497;48.322;16.204;2023-02-28T13:11:43;5.30;95.90
25640;DHT22;13497;48.322;16.204;2023-02-28T13:14:19;5.20;96.10
25640;DHT22;13497;48.322;16.204;2023-02-28T13:19:30;5.40;95.90
25640;DHT22;13497;48.322;16.204;2023-02-28T13:21:56;5.40;95.80
25640;DHT22;13497;48.322;16.204;2023-02-28T13:24:43;5.40;95.60
25640;DHT22;13497;48.322;16.204;2023-02-28T13:29:38;5.70;95.40
25640;DHT22;13497;48.322;16.204;2023-02-28T13:34:32;5.70;94.90
25640;DHT22;13497;48.322;16.204;2023-02-28T13:50:07;5.70;95.20
25640;DHT22;13497;48.322;16.204;2023-02-28T13:52:43;5.60;95.10
25640;DHT22;13497;48.322;16.204;2023-02-28T14:05:13;5.90;94.70
25640;DHT22;13497;48.322;16.204;2023-02-28T14:07:49;5.80;95.10
25640;DHT22;13497;48.322;16.204;2023-02-28T14:10:21;5.70;94.70
25640;DHT22;13497;48.322;16.204;2023-02-28T14:21:13;5.50;95.00
25640;DHT22;13497;48.322;16.204;2023-02-28T14:31:17;5.50;95.10
25640;DHT22;13497;48.322;16.204;2023-02-28T14:33:47;5.50;94.90
25640;DHT22;13497;48.322;16.204;2023-02-28T14:36:38;5.50;95.00
25640;DHT22;13497;48.322;16.204;2023-02-28T14:39:06;5.40;94.70
25640;DHT22;13497;48.322;16.204;2023-02-28T14:41:33;5.30;94.80
25640;DHT22;13497;48.322;16.204;2023-02-28T14:44:03;5.40;94.50
25640;DHT22;13497;48.322;16.204;2023-02-28T14:46:38;5.40;94.20
25640;DHT22;13497;48.322;16.204;2023-02-28T14:49:05;5.40;94.20
25640;DHT22;13497;48.322;16.204;2023-02-28T14:51:32;5.30;94.40
25640;DHT22;13497;48.322;16.204;2023-02-28T14:53:59;5.30;94.50
25640;DHT22;13497;48.322;16.204;2023-02-28T14:56:30;5.40;94.50
25640;DHT22;13497;48.322;16.204;2023-02-28T14:58:58;5.40;94.30
25640;DHT22;13497;48.322;16.204;2023-02-28T15:01:24;5.30;94.10
25640;DHT22;13497;48.322;16.204;2023-02-28T15:04:04;5.20;94.30
25640;DHT22;13497;48.322;16.204;2023-02-28T15:06:30;5.20;94.40
25640;DHT22;13497;48.322;16.204;2023-02-28T15:09:09;5.40;94.20
25640;DHT22;13497;48.322;16.204;2023-02-28T15:11:35;5.50;93.60
25640;DHT22;13497;48.322;16.204;2023-02-28T15:14:02;5.50;93.80
25640;DHT22;13497;48.322;16.204;2023-02-28T15:16:29;5.50;94.00
25640;DHT22;13497;48.322;16.204;2023-02-28T15:19:01;5.50;94.00
25640;DHT22;13497;48.322;16.204;2023-02-28T15:21:28;5.60;94.00
25640;DHT22;13497;48.322;16.204;2023-02-28T15:26:20;5.60;94.00
25640;DHT22;13497;48.322;16.204;2023-02-28T15:28:56;5.60;94.00
25640;DHT22;13497;48.322;16.204;2023-02-28T15:31:29;5.60;94.20
25640;DHT22;13497;48.322;16.204;2023-02-28T15:33:57;5.60;94.30
25640;DHT22;13497;48.322;16.204;2023-02-28T15:36:26;5.40;94.10
25640;DHT22;13497;48.322;16.204;2023-02-28T15:38:53;5.30;94.10
25640;DHT22;13497;48.322;16.204;2023-02-28T15:41:26;5.30;94.20
25640;DHT22;13497;48.322;16.204;2023-02-28T15:46:36;5.20;94.20
25640;DHT22;13497;48.322;16.204;2023-02-28T15:49:01;5.10;94.30
25640;DHT22;13497;48.322;16.204;2023-02-28T15:53:56;5.10;94.50
25640;DHT22;13497;48.322;16.204;2023-02-28T15:56:23;5.10;94.40
25640;DHT22;13497;48.322;16.204;2023-02-28T15:58:50;5.00;94.20
25640;DHT22;13497;48.322;16.204;2023-02-28T16:01:19;5.00;94.20
25640;DHT22;13497;48.322;16.204;2023-02-28T16:03:47;5.00;94.60
25640;DHT22;13497;48.322;16.204;2023-02-28T16:08:41;4.90;94.80
25640;DHT22;13497;48.322;16.204;2023-02-28T16:11:10;4.90;95.00
25640;DHT22;13497;48.322;16.204;2023-02-28T16:13:36;4.80;95.20
25640;DHT22;13497;48.322;16.204;2023-02-28T16:16:01;4.80;95.40
25640;DHT22;13497;48.322;16.204;2023-02-28T16:18:27;4.80;95.70
25640;DHT22;13497;48.322;16.204;2023-02-28T16:20:53;4.70;96.00
25640;DHT22;13497;48.322;16.204;2023-02-28T16:23:18;4.60;96.30
25640;DHT22;13497;48.322;16.204;2023-02-28T16:25:44;4.60;96.90
25640;DHT22;13497;48.322;16.204;2023-02-28T16:30:42;4.30;97.00
25640;DHT22;13497;48.322;16.204;2023-02-28T16:33:08;4.30;97.10
25640;DHT22;13497;48.322;16.204;2023-02-28T16:35:34;4.20;97.30
25640;DHT22;13497;48.322;16.204;2023-02-28T16:37:59;4.00;97.30
25640;DHT22;13497;48.322;16.204;2023-02-28T16:40:25;3.90;97.60
25640;DHT22;13497;48.322;16.204;2023-02-28T16:42:55;3.70;98.00
25640;DHT22;13497;48.322;16.204;2023-02-28T16:45:23;3.70;98.40
25640;DHT22;13497;48.322;16.204;2023-02-28T16:47:49;3.60;98.50
25640;DHT22;13497;48.322;16.204;2023-02-28T16:50:16;3.40;98.70
25640;DHT22;13497;48.322;16.204;2023-02-28T16:52:41;3.30;98.90
25640;DHT22;13497;48.322;16.204;2023-02-28T16:55:07;3.30;99.10
25640;DHT22;13497;48.322;16.204;2023-02-28T16:57:33;3.20;99.20
25640;DHT22;13497;48.322;16.204;2023-02-28T16:59:58;3.20;99.00
25640;DHT22;13497;48.322;16.204;2023-02-28T17:02:24;3.10;99.30
25640;DHT22;13497;48.322;16.204;2023-02-28T17:04:49;3.00;99.50
25640;DHT22;13497;48.322;16.204;2023-02-28T17:07:15;2.90;99.70
25640;DHT22;13497;48.322;16.204;2023-02-28T17:09:42;2.80;99.80
25640;DHT22;13497;48.322;16.204;2023-02-28T17:12:08;2.70;99.90
25640;DHT22;13497;48.322;16.204;2023-02-28T17:14:34;2.60;99.90
25640;DHT22;13497;48.322;16.204;2023-02-28T17:16:59;2.50;99.90
25640;DHT22;13497;48.322;16.204;2023-02-28T17:19:25;2.40;99.90
25640;DHT22;13497;48.322;16.204;2023-02-28T17:21:50;2.40;99.90
25640;DHT22;13497;48.322;16.204;2023-02-28T17:24:16;2.40;99.90
25640;DHT22;13497;48.322;16.204;2023-02-28T17:26:42;2.40;99.90
25640;DHT22;13497;48.322;16.204;2023-02-28T17:29:18;2.30;99.90
25640;DHT22;13497;48.322;16.204;2023-02-28T17:31:44;2.30;99.90
25640;DHT22;13497;48.322;16.204;2023-02-28T17:34:10;2.30;99.90
25640;DHT22;13497;48.322;16.204;2023-02-28T17:36:35;2.30;99.90
25640;DHT22;13497;48.322;16.204;2023-02-28T17:39:02;2.30;99.90
25640;DHT22;13497;48.322;16.204;2023-02-28T17:41:28;2.30;99.90
25640;DHT22;13497;48.322;16.204;2023-02-28T17:43:56;2.40;99.90
25640;DHT22;13497;48.322;16.204;2023-02-28T17:46:22;2.40;99.90